sensor_id;sensor_type;location;lat;lon;timestamp;temperature;humidity
21061;DHT22;10689;50.836;3.266;2022-09-12T00:00:31;16.50;99.90
21061;DHT22;10689;50.836;3.266;2022-09-12T00:02:57;16.50;99.90
21061;DHT22;10689;50.836;3.266;2022-09-12T00:05:24;16.50;99.90
21061;DHT22;10689;50.836;3.266;2022-09-12T00:07:50;16.50;99.90
21061;DHT22;10689;50.836;3.266;2022-09-12T00:10:16;16.40;99.90
21061;DHT22;10689;50.836;3.266;2022-09-12T00:12:42;16.40;99.90
21061;DHT22;10689;50.836;3.266;2022-09-12T00:15:09;16.40;99.90
21061;DHT22;10689;50.836;3.266;2022-09-12T00:17:36;16.40;99.90
21061;DHT22;10689;50.836;3.266;2022-09-12T00:20:07;16.40;99.90
21061;DHT22;10689;50.836;3.266;2022-09-12T00:22:34;16.40;99.90
21061;DHT22;10689;50.836;3.266;2022-09-12T00:25:00;16.40;99.90
21061;DHT22;10689;50.836;3.266;2022-09-12T00:27:27;16.40;99.90
21061;DHT22;10689;50.836;3.266;2022-09-12T00:29:53;16.40;99.90
21061;DHT22;10689;50.836;3.266;2022-09-12T00:32:19;16.40;99.90
21061;DHT22;10689;50.836;3.266;2022-09-12T00:34:46;16.30;99.90
21061;DHT22;10689;50.836;3.266;2022-09-12T00:37:11;16.40;99.90
21061;DHT22;10689;50.836;3.266;2022-09-12T00:39:37;16.30;99.90
21061;DHT22;10689;50.836;3.266;2022-09-12T00:42:04;16.30;99.90
21061;DHT22;10689;50.836;3.266;2022-09-12T00:47:09;16.30;99.90
21061;DHT22;10689;50.836;3.266;2022-09-12T00:49:54;16.30;99.90
21061;DHT22;10689;50.836;3.266;2022-09-12T00:52:28;16.30;99.90
21061;DHT22;10689;50.836;3.266;2022-09-12T00:55:12;16.30;99.90
21061;DHT22;10689;50.836;3.266;2022-09-12T00:57:57;16.40;99.90
21061;DHT22;10689;50.836;3.266;2022-09-12T01:00:26;16.30;99.90
21061;DHT22;10689;50.836;3.266;2022-09-12T01:02:54;16.20;99.90
21061;DHT22;10689;50.836;3.266;2022-09-12T01:05:22;16.20;99.90
21061;DHT22;10689;50.836;3.266;2022-09-12T01:07:49;16.10;99.90
21061;DHT22;10689;50.836;3.266;2022-09-12T01:10:16;16.00;99.90
21061;DHT22;10689;50.836;3.266;2022-09-12T01:12:43;16.00;99.90
21061;DHT22;10689;50.836;3.266;2022-09-12T01:15:10;15.90;99.90
21061;DHT22;10689;50.836;3.266;2022-09-12T01:29:26;16.00;99.90
21061;DHT22;10689;50.836;3.266;2022-09-12T01:32:09;16.00;99.90
21061;DHT22;10689;50.836;3.266;2022-09-12T01:34:48;15.90;99.90
21061;DHT22;10689;50.836;3.266;2022-09-12T01:40:06;15.80;99.90
21061;DHT22;10689;50.836;3.266;2022-09-12T01:42:44;15.90;99.90
21061;DHT22;10689;50.836;3.266;2022-09-12T01:45:25;15.90;99.90
21061;DHT22;10689;50.836;3.266;2022-09-12T01:47:59;15.90;99.90
21061;DHT22;10689;50.836;3.266;2022-09-12T01:50:31;15.80;99.90
21061;DHT22;10689;50.836;3.266;2022-09-12T01:53:03;15.80;99.90
21061;DHT22;10689;50.836;3.266;2022-09-12T01:55:40;15.80;99.90
21061;DHT22;10689;50.836;3.266;2022-09-12T01:58:13;15.80;99.90
21061;DHT22;10689;50.836;3.266;2022-09-12T02:01:05;15.80;99.90
21061;DHT22;10689;50.836;3.266;2022-09-12T02:03:38;15.80;99.90
21061;DHT22;10689;50.836;3.266;2022-09-12T02:06:11;15.80;99.90
21061;DHT22;10689;50.836;3.266;2022-09-12T02:08:43;15.80;99.90
21061;DHT22;10689;50.836;3.266;2022-09-12T02:11:12;15.70;99.90
21061;DHT22;10689;50.836;3.266;2022-09-12T02:16:21;15.60;99.90
21061;DHT22;10689;50.836;3.266;2022-09-12T02:18:54;15.80;99.90
21061;DHT22;10689;50.836;3.266;2022-09-12T02:21:23;15.80;99.90
21061;DHT22;10689;50.836;3.266;2022-09-12T02:23:55;15.80;99.90
21061;DHT22;10689;50.836;3.266;2022-09-12T02:26:31;15.80;99.90
21061;DHT22;10689;50.836;3.266;2022-09-12T02:28:58;15.70;99.90
21061;DHT22;10689;50.836;3.266;2022-09-12T02:31:28;15.70;99.90
21061;DHT22;10689;50.836;3.266;2022-09-12T02:39:15;15.60;99.90
21061;DHT22;10689;50.836;3.266;2022-09-12T02:41:54;15.60;99.90
21061;DHT22;10689;50.836;3.266;2022-09-12T02:44:23;15.60;99.90
21061;DHT22;10689;50.836;3.266;2022-09-12T02:46:55;15.50;99.90
21061;DHT22;10689;50.836;3.266;2022-09-12T02:49:21;15.60;99.90
21061;DHT22;10689;50.836;3.266;2022-09-12T02:51:47;15.50;99.90
21061;DHT22;10689;50.836;3.266;2022-09-12T02:54:14;15.50;99.90
21061;DHT22;10689;50.836;3.266;2022-09-12T02:56:43;15.50;99.90
21061;DHT22;10689;50.836;3.266;2022-09-12T02:59:11;15.40;99.90
21061;DHT22;10689;50.836;3.266;2022-09-12T03:23:02;15.30;99.90
21061;DHT22;10689;50.836;3.266;2022-09-12T03:25:49;15.30;99.90
21061;DHT22;10689;50.836;3.266;2022-09-12T03:28:16;15.30;99.90
21061;DHT22;10689;50.836;3.266;2022-09-12T03:30:45;15.30;99.90
21061;DHT22;10689;50.836;3.266;2022-09-12T03:33:14;15.30;99.90
21061;DHT22;10689;50.836;3.266;2022-09-12T03:35:40;15.20;99.90
21061;DHT22;10689;50.836;3.266;2022-09-12T03:38:06;15.20;99.90
21061;DHT22;10689;50.836;3.266;2022-09-12T03:40:33;15.20;99.90
21061;DHT22;10689;50.836;3.266;2022-09-12T03:42:59;15.10;99.90
21061;DHT22;10689;50.836;3.266;2022-09-12T03:45:25;15.00;99.90
21061;DHT22;10689;50.836;3.266;2022-09-12T03:47:50;15.00;99.90
21061;DHT22;10689;50.836;3.266;2022-09-12T03:50:16;15.00;99.90
21061;DHT22;10689;50.836;3.266;2022-09-12T03:52:42;15.00;99.90
21061;DHT22;10689;50.836;3.266;2022-09-12T03:55:08;15.00;99.90
21061;DHT22;10689;50.836;3.266;2022-09-12T03:57:34;15.00;99.90
21061;DHT22;10689;50.836;3.266;2022-09-12T03:59:59;15.10;99.90
21061;DHT22;10689;50.836;3.266;2022-09-12T04:02:27;15.10;99.90
21061;DHT22;10689;50.836;3.266;2022-09-12T04:04:53;15.10;99.90
21061;DHT22;10689;50.836;3.266;2022-09-12T04:07:18;15.10;99.90
21061;DHT22;10689;50.836;3.266;2022-09-12T04:09:44;15.10;99.90
21061;DHT22;10689;50.836;3.266;2022-09-12T04:12:10;15.10;99.90
21061;DHT22;10689;50.836;3.266;2022-09-12T04:14:35;15.00;99.90
21061;DHT22;10689;50.836;3.266;2022-09-12T04:17:02;15.00;99.90
21061;DHT22;10689;50.836;3.266;2022-09-12T04:19:27;14.90;99.90
21061;DHT22;10689;50.836;3.266;2022-09-12T04:21:53;14.90;99.90
21061;DHT22;10689;50.836;3.266;2022-09-12T04:24:19;14.90;99.90
21061;DHT22;10689;50.836;3.266;2022-09-12T04:26:44;14.90;99.90
21061;DHT22;10689;50.836;3.266;2022-09-12T04:29:14;14.80;99.90
21061;DHT22;10689;50.836;3.266;2022-09-12T04:31:40;14.80;99.90
21061;DHT22;10689;50.836;3.266;2022-09-12T04:34:06;14.90;99.90
21061;DHT22;10689;50.836;3.266;2022-09-12T04:36:32;14.80;99.90
21061;DHT22;10689;50.836;3.266;2022-09-12T04:38:59;14.90;99.90
21061;DHT22;10689;50.836;3.266;2022-09-12T04:41:28;14.80;99.90
21061;DHT22;10689;50.836;3.266;2022-09-12T04:43:57;14.80;99.90
21061;DHT22;10689;50.836;3.266;2022-09-12T04:46:24;14.80;99.90
21061;DHT22;10689;50.836;3.266;2022-09-12T04:48:50;14.80;99.90
21061;DHT22;10689;50.836;3.266;2022-09-12T04:51:18;14.80;99.90
21061;DHT22;10689;50.836;3.266;2022-09-12T04:53:50;14.70;99.90
21061;DHT22;10689;50.836;3.266;2022-09-12T04:56:18;14.70;99.90
21061;DHT22;10689;50.836;3.266;2022-09-12T04:58:44;14.70;99.90
21061;DHT22;10689;50.836;3.266;2022-09-12T05:01:12;14.70;99.90
21061;DHT22;10689;50.836;3.266;2022-09-12T05:03:39;14.70;99.90
21061;DHT22;10689;50.836;3.266;2022-09-12T05:06:10;14.60;99.90
21061;DHT22;10689;50.836;3.266;2022-09-12T05:08:37;14.60;99.90
21061;DHT22;10689;50.836;3.266;2022-09-12T05:11:10;14.60;99.90
21061;DHT22;10689;50.836;3.266;2022-09-12T05:13:37;14.60;99.90
21061;DHT22;10689;50.836;3.266;2022-09-12T05:16:04;14.70;99.90
21061;DHT22;10689;50.836;3.266;2022-09-12T05:18:34;14.70;99.90
21061;DHT22;10689;50.836;3.266;2022-09-12T05:21:02;14.60;99.90
21061;DHT22;10689;50.836;3.266;2022-09-12T05:23:29;14.60;99.90
21061;DHT22;10689;50.836;3.266;2022-09-12T05:25:56;14.60;99.90
21061;DHT22;10689;50.836;3.266;2022-09-12T05:28:23;14.70;99.90
21061;DHT22;10689;50.836;3.266;2022-09-12T05:31:03;14.60;99.90
21061;DHT22;10689;50.836;3.266;2022-09-12T05:33:30;14.70;99.90
21061;DHT22;10689;50.836;3.266;2022-09-12T05:35:56;14.70;99.90
21061;DHT22;10689;50.836;3.266;2022-09-12T05:38:22;14.70;99.90
21061;DHT22;10689;50.836;3.266;2022-09-12T05:40:52;14.70;99.90
21061;DHT22;10689;50.836;3.266;2022-09-12T05:43:18;14.70;99.90
21061;DHT22;10689;50.836;3.266;2022-09-12T05:45:45;14.70;99.90
21061;DHT22;10689;50.836;3.266;2022-09-12T05:48:10;14.70;99.90
21061;DHT22;10689;50.836;3.266;2022-09-12T05:50:36;14.70;99.90
21061;DHT22;10689;50.836;3.266;2022-09-12T05:53:01;14.70;99.90
21061;DHT22;10689;50.836;3.266;2022-09-12T05:55:27;14.70;99.90
21061;DHT22;10689;50.836;3.266;2022-09-12T05:57:53;14.70;99.90
21061;DHT22;10689;50.836;3.266;2022-09-12T06:00:19;14.80;99.90
21061;DHT22;10689;50.836;3.266;2022-09-12T06:02:51;14.90;99.90
21061;DHT22;10689;50.836;3.266;2022-09-12T06:05:17;14.90;99.90
21061;DHT22;10689;50.836;3.266;2022-09-12T06:07:45;14.90;99.90
21061;DHT22;10689;50.836;3.266;2022-09-12T06:10:11;14.90;99.90
21061;DHT22;10689;50.836;3.266;2022-09-12T06:12:36;15.00;99.90
21061;DHT22;10689;50.836;3.266;2022-09-12T06:15:02;15.10;99.90
21061;DHT22;10689;50.836;3.266;2022-09-12T06:17:28;15.20;99.90
21061;DHT22;10689;50.836;3.266;2022-09-12T06:19:54;15.30;99.90
21061;DHT22;10689;50.836;3.266;2022-09-12T06:22:21;15.30;99.90
21061;DHT22;10689;50.836;3.266;2022-09-12T06:24:46;15.40;99.90
21061;DHT22;10689;50.836;3.266;2022-09-12T06:27:12;15.50;99.90
21061;DHT22;10689;50.836;3.266;2022-09-12T06:29:38;15.60;99.90
21061;DHT22;10689;50.836;3.266;2022-09-12T06:32:04;15.70;99.90
21061;DHT22;10689;50.836;3.266;2022-09-12T06:34:29;15.70;99.90
21061;DHT22;10689;50.836;3.266;2022-09-12T06:36:55;15.90;99.90
21061;DHT22;10689;50.836;3.266;2022-09-12T06:39:21;15.90;99.90
21061;DHT22;10689;50.836;3.266;2022-09-12T06:41:49;16.10;99.90
21061;DHT22;10689;50.836;3.266;2022-09-12T06:44:20;16.20;99.90
21061;DHT22;10689;50.836;3.266;2022-09-12T06:46:46;16.30;99.90
21061;DHT22;10689;50.836;3.266;2022-09-12T06:49:13;16.40;99.90
21061;DHT22;10689;50.836;3.266;2022-09-12T06:51:39;16.40;99.90
21061;DHT22;10689;50.836;3.266;2022-09-12T06:54:06;16.50;99.90
21061;DHT22;10689;50.836;3.266;2022-09-12T06:56:32;16.50;99.90
21061;DHT22;10689;50.836;3.266;2022-09-12T06:58:58;16.50;99.90
21061;DHT22;10689;50.836;3.266;2022-09-12T07:01:26;16.60;99.90
21061;DHT22;10689;50.836;3.266;2022-09-12T07:03:54;16.70;99.90
21061;DHT22;10689;50.836;3.266;2022-09-12T07:06:22;16.80;99.90
21061;DHT22;10689;50.836;3.266;2022-09-12T07:08:49;16.80;99.90
21061;DHT22;10689;50.836;3.266;2022-09-12T07:11:19;16.90;99.90
21061;DHT22;10689;50.836;3.266;2022-09-12T07:13:47;17.00;99.90
21061;DHT22;10689;50.836;3.266;2022-09-12T07:16:14;17.10;99.90
21061;DHT22;10689;50.836;3.266;2022-09-12T07:18:40;17.30;99.90
21061;DHT22;10689;50.836;3.266;2022-09-12T07:21:09;17.40;99.90
21061;DHT22;10689;50.836;3.266;2022-09-12T07:23:35;17.60;99.90
21061;DHT22;10689;50.836;3.266;2022-09-12T07:26:01;17.60;99.90
21061;DHT22;10689;50.836;3.266;2022-09-12T07:28:31;17.60;99.90
21061;DHT22;10689;50.836;3.266;2022-09-12T07:30:57;17.60;99.90
21061;DHT22;10689;50.836;3.266;2022-09-12T07:33:26;17.80;99.90
21061;DHT22;10689;50.836;3.266;2022-09-12T07:35:53;17.80;99.90
21061;DHT22;10689;50.836;3.266;2022-09-12T07:38:22;17.90;99.90
21061;DHT22;10689;50.836;3.266;2022-09-12T07:40:48;18.10;99.90
21061;DHT22;10689;50.836;3.266;2022-09-12T07:43:14;18.20;99.90
21061;DHT22;10689;50.836;3.266;2022-09-12T07:45:39;18.30;99.90
21061;DHT22;10689;50.836;3.266;2022-09-12T07:48:07;18.40;99.90
21061;DHT22;10689;50.836;3.266;2022-09-12T07:50:33;18.40;99.90
21061;DHT22;10689;50.836;3.266;2022-09-12T07:53:00;18.50;99.90
21061;DHT22;10689;50.836;3.266;2022-09-12T07:55:27;18.60;99.90
21061;DHT22;10689;50.836;3.266;2022-09-12T07:57:53;18.60;99.90
21061;DHT22;10689;50.836;3.266;2022-09-12T08:00:19;18.70;99.90
21061;DHT22;10689;50.836;3.266;2022-09-12T08:02:49;18.80;99.90
21061;DHT22;10689;50.836;3.266;2022-09-12T08:05:14;18.90;99.90
21061;DHT22;10689;50.836;3.266;2022-09-12T08:07:40;19.00;99.90
21061;DHT22;10689;50.836;3.266;2022-09-12T08:10:06;19.00;99.90
21061;DHT22;10689;50.836;3.266;2022-09-12T08:12:32;19.10;99.90
21061;DHT22;10689;50.836;3.266;2022-09-12T08:14:59;19.10;99.90
21061;DHT22;10689;50.836;3.266;2022-09-12T08:17:25;19.20;99.90
21061;DHT22;10689;50.836;3.266;2022-09-12T08:19:51;19.40;99.90
21061;DHT22;10689;50.836;3.266;2022-09-12T08:22:17;19.40;99.90
21061;DHT22;10689;50.836;3.266;2022-09-12T08:24:45;19.40;99.90
21061;DHT22;10689;50.836;3.266;2022-09-12T08:27:10;19.50;99.90
21061;DHT22;10689;50.836;3.266;2022-09-12T08:29:36;19.60;99.90
21061;DHT22;10689;50.836;3.266;2022-09-12T08:32:02;19.50;99.90
21061;DHT22;10689;50.836;3.266;2022-09-12T08:34:28;19.50;99.90
21061;DHT22;10689;50.836;3.266;2022-09-12T08:36:54;19.50;99.90
21061;DHT22;10689;50.836;3.266;2022-09-12T08:39:20;19.60;99.90
21061;DHT22;10689;50.836;3.266;2022-09-12T08:41:47;19.80;99.90
21061;DHT22;10689;50.836;3.266;2022-09-12T08:44:40;19.90;99.90
21061;DHT22;10689;50.836;3.266;2022-09-12T08:47:26;19.90;99.90
21061;DHT22;10689;50.836;3.266;2022-09-12T08:50:14;19.90;99.90
21061;DHT22;10689;50.836;3.266;2022-09-12T08:57:44;20.30;99.90
21061;DHT22;10689;50.836;3.266;2022-09-12T09:00:13;20.60;99.90
21061;DHT22;10689;50.836;3.266;2022-09-12T09:05:48;20.70;99.90
21061;DHT22;10689;50.836;3.266;2022-09-12T09:08:19;20.70;99.90
21061;DHT22;10689;50.836;3.266;2022-09-12T09:11:39;20.80;99.90
21061;DHT22;10689;50.836;3.266;2022-09-12T09:16:41;20.90;99.90
21061;DHT22;10689;50.836;3.266;2022-09-12T09:19:20;20.80;99.90
21061;DHT22;10689;50.836;3.266;2022-09-12T09:22:04;20.80;99.90
21061;DHT22;10689;50.836;3.266;2022-09-12T09:24:51;20.90;99.90
21061;DHT22;10689;50.836;3.266;2022-09-12T09:30:22;21.00;99.90
21061;DHT22;10689;50.836;3.266;2022-09-12T09:32:54;21.10;99.90
21061;DHT22;10689;50.836;3.266;2022-09-12T09:38:15;21.10;99.90
21061;DHT22;10689;50.836;3.266;2022-09-12T09:43:25;21.20;99.90
21061;DHT22;10689;50.836;3.266;2022-09-12T09:45:53;21.50;99.90
21061;DHT22;10689;50.836;3.266;2022-09-12T09:48:27;21.60;99.90
21061;DHT22;10689;50.836;3.266;2022-09-12T09:50:58;21.80;99.90
21061;DHT22;10689;50.836;3.266;2022-09-12T09:53:31;21.80;99.90
21061;DHT22;10689;50.836;3.266;2022-09-12T09:56:00;21.90;99.90
21061;DHT22;10689;50.836;3.266;2022-09-12T09:58:32;22.00;99.90
21061;DHT22;10689;50.836;3.266;2022-09-12T10:01:09;22.10;99.90
21061;DHT22;10689;50.836;3.266;2022-09-12T10:03:38;22.20;99.90
21061;DHT22;10689;50.836;3.266;2022-09-12T10:06:29;22.40;99.90
21061;DHT22;10689;50.836;3.266;2022-09-12T10:09:17;22.50;99.90
21061;DHT22;10689;50.836;3.266;2022-09-12T10:11:43;22.70;99.90
21061;DHT22;10689;50.836;3.266;2022-09-12T10:14:32;22.70;99.90
21061;DHT22;10689;50.836;3.266;2022-09-12T10:17:01;22.90;99.90
21061;DHT22;10689;50.836;3.266;2022-09-12T10:19:37;23.00;99.90
21061;DHT22;10689;50.836;3.266;2022-09-12T10:22:17;23.10;99.90
21061;DHT22;10689;50.836;3.266;2022-09-12T10:24:50;23.20;99.90
21061;DHT22;10689;50.836;3.266;2022-09-12T10:27:25;23.40;99.90
21061;DHT22;10689;50.836;3.266;2022-09-12T10:32:33;23.70;99.90
21061;DHT22;10689;50.836;3.266;2022-09-12T10:35:14;23.70;99.90
21061;DHT22;10689;50.836;3.266;2022-09-12T10:37:52;23.80;99.90
21061;DHT22;10689;50.836;3.266;2022-09-12T10:40:32;23.80;99.90
21061;DHT22;10689;50.836;3.266;2022-09-12T10:42:59;23.90;99.90
21061;DHT22;10689;50.836;3.266;2022-09-12T10:45:35;24.00;99.90
21061;DHT22;10689;50.836;3.266;2022-09-12T10:48:28;24.10;99.90
21061;DHT22;10689;50.836;3.266;2022-09-12T10:50:56;24.30;99.90
21061;DHT22;10689;50.836;3.266;2022-09-12T10:53:38;24.40;99.90
21061;DHT22;10689;50.836;3.266;2022-09-12T10:56:11;24.60;99.90
21061;DHT22;10689;50.836;3.266;2022-09-12T10:58:56;24.70;99.90
21061;DHT22;10689;50.836;3.266;2022-09-12T11:09:53;25.30;99.90
21061;DHT22;10689;50.836;3.266;2022-09-12T11:32:21;26.50;99.90
21061;DHT22;10689;50.836;3.266;2022-09-12T11:42:46;27.20;99.90
21061;DHT22;10689;50.836;3.266;2022-09-12T11:45:29;27.30;99.90
21061;DHT22;10689;50.836;3.266;2022-09-12T11:48:00;27.30;99.90
21061;DHT22;10689;50.836;3.266;2022-09-12T11:50:30;27.20;99.90
21061;DHT22;10689;50.836;3.266;2022-09-12T11:53:18;27.30;99.90
21061;DHT22;10689;50.836;3.266;2022-09-12T11:56:03;27.30;99.90
21061;DHT22;10689;50.836;3.266;2022-09-12T11:58:30;27.60;99.90
21061;DHT22;10689;50.836;3.266;2022-09-12T12:03:40;27.70;99.90
21061;DHT22;10689;50.836;3.266;2022-09-12T12:09:17;28.00;99.90
21061;DHT22;10689;50.836;3.266;2022-09-12T12:11:53;28.20;99.90
21061;DHT22;10689;50.836;3.266;2022-09-12T12:14:26;28.10;99.90
21061;DHT22;10689;50.836;3.266;2022-09-12T12:16:54;28.10;99.90
21061;DHT22;10689;50.836;3.266;2022-09-12T12:19:47;28.10;99.90
21061;DHT22;10689;50.836;3.266;2022-09-12T12:22:22;28.00;99.90
21061;DHT22;10689;50.836;3.266;2022-09-12T12:25:06;28.10;99.90
21061;DHT22;10689;50.836;3.266;2022-09-12T12:27:53;28.20;99.90
21061;DHT22;10689;50.836;3.266;2022-09-12T12:38:34;28.70;99.90
21061;DHT22;10689;50.836;3.266;2022-09-12T12:43:43;29.20;99.90
21061;DHT22;10689;50.836;3.266;2022-09-12T12:46:11;29.40;99.90
21061;DHT22;10689;50.836;3.266;2022-09-12T12:51:28;29.50;99.90
21061;DHT22;10689;50.836;3.266;2022-09-12T12:53:56;29.40;99.90
21061;DHT22;10689;50.836;3.266;2022-09-12T12:56:38;29.40;99.90
21061;DHT22;10689;50.836;3.266;2022-09-12T12:59:18;29.40;99.90
21061;DHT22;10689;50.836;3.266;2022-09-12T13:01:52;29.30;99.90
21061;DHT22;10689;50.836;3.266;2022-09-12T13:04:21;29.20;99.90
21061;DHT22;10689;50.836;3.266;2022-09-12T13:07:07;29.30;99.90
21061;DHT22;10689;50.836;3.266;2022-09-12T13:09:45;29.30;99.90
21061;DHT22;10689;50.836;3.266;2022-09-12T13:12:21;29.30;99.90
21061;DHT22;10689;50.836;3.266;2022-09-12T13:14:56;29.30;99.90
21061;DHT22;10689;50.836;3.266;2022-09-12T13:17:33;29.50;99.90
21061;DHT22;10689;50.836;3.266;2022-09-12T13:22:44;29.40;99.90
21061;DHT22;10689;50.836;3.266;2022-09-12T13:28:05;29.70;99.90
21061;DHT22;10689;50.836;3.266;2022-09-12T13:30:35;29.80;99.90
21061;DHT22;10689;50.836;3.266;2022-09-12T13:33:34;29.90;99.90
21061;DHT22;10689;50.836;3.266;2022-09-12T13:38:56;30.10;99.90
21061;DHT22;10689;50.836;3.266;2022-09-12T13:44:43;29.80;99.90
21061;DHT22;10689;50.836;3.266;2022-09-12T13:47:18;29.60;99.90
21061;DHT22;10689;50.836;3.266;2022-09-12T13:49:47;29.60;99.90
21061;DHT22;10689;50.836;3.266;2022-09-12T13:52:25;29.60;99.90
21061;DHT22;10689;50.836;3.266;2022-09-12T13:54:53;29.60;99.90
21061;DHT22;10689;50.836;3.266;2022-09-12T13:57:29;29.60;99.90
21061;DHT22;10689;50.836;3.266;2022-09-12T13:59:56;29.90;99.90
21061;DHT22;10689;50.836;3.266;2022-09-12T14:02:24;30.10;99.90
21061;DHT22;10689;50.836;3.266;2022-09-12T14:04:52;30.30;99.90
21061;DHT22;10689;50.836;3.266;2022-09-12T14:07:46;30.40;99.90
21061;DHT22;10689;50.836;3.266;2022-09-12T14:10:29;30.30;99.90
21061;DHT22;10689;50.836;3.266;2022-09-12T14:12:57;30.00;99.90
21061;DHT22;10689;50.836;3.266;2022-09-12T14:15:26;29.80;99.90
21061;DHT22;10689;50.836;3.266;2022-09-12T14:17:57;29.80;99.90
21061;DHT22;10689;50.836;3.266;2022-09-12T14:20:31;30.00;99.90
21061;DHT22;10689;50.836;3.266;2022-09-12T14:23:24;30.30;99.90
21061;DHT22;10689;50.836;3.266;2022-09-12T14:25:52;30.70;99.90
21061;DHT22;10689;50.836;3.266;2022-09-12T14:28:19;31.20;99.90
21061;DHT22;10689;50.836;3.266;2022-09-12T14:31:05;31.50;99.90
21061;DHT22;10689;50.836;3.266;2022-09-12T14:33:54;31.50;99.90
21061;DHT22;10689;50.836;3.266;2022-09-12T14:36:34;31.40;99.90
21061;DHT22;10689;50.836;3.266;2022-09-12T14:39:04;31.40;99.90
21061;DHT22;10689;50.836;3.266;2022-09-12T14:41:37;31.50;99.90
21061;DHT22;10689;50.836;3.266;2022-09-12T14:44:14;31.40;99.90
21061;DHT22;10689;50.836;3.266;2022-09-12T14:46:42;31.60;99.90
21061;DHT22;10689;50.836;3.266;2022-09-12T14:49:23;31.40;99.90
21061;DHT22;10689;50.836;3.266;2022-09-12T14:54:34;31.70;99.90
21061;DHT22;10689;50.836;3.266;2022-09-12T14:57:03;31.50;99.90
21061;DHT22;10689;50.836;3.266;2022-09-12T14:59:39;31.30;99.90
21061;DHT22;10689;50.836;3.266;2022-09-12T15:04:54;31.20;99.90
21061;DHT22;10689;50.836;3.266;2022-09-12T15:09:54;30.90;99.90
21061;DHT22;10689;50.836;3.266;2022-09-12T15:12:21;30.90;99.90
21061;DHT22;10689;50.836;3.266;2022-09-12T15:14:47;30.70;99.90
21061;DHT22;10689;50.836;3.266;2022-09-12T15:17:13;30.70;99.90
21061;DHT22;10689;50.836;3.266;2022-09-12T15:19:38;30.80;99.90
21061;DHT22;10689;50.836;3.266;2022-09-12T15:22:04;30.80;99.90
21061;DHT22;10689;50.836;3.266;2022-09-12T15:24:30;30.70;99.90
21061;DHT22;10689;50.836;3.266;2022-09-12T15:26:55;30.70;99.90
21061;DHT22;10689;50.836;3.266;2022-09-12T15:29:21;30.60;99.90
21061;DHT22;10689;50.836;3.266;2022-09-12T15:31:49;30.50;99.90
21061;DHT22;10689;50.836;3.266;2022-09-12T15:34:15;30.40;99.90
21061;DHT22;10689;50.836;3.266;2022-09-12T15:36:41;30.50;99.90
21061;DHT22;10689;50.836;3.266;2022-09-12T15:39:08;30.60;99.90
21061;DHT22;10689;50.836;3.266;2022-09-12T15:41:36;30.80;99.90
21061;DHT22;10689;50.836;3.266;2022-09-12T15:44:09;30.90;99.90
21061;DHT22;10689;50.836;3.266;2022-09-12T15:46:35;30.90;99.90
21061;DHT22;10689;50.836;3.266;2022-09-12T15:49:01;30.90;99.90
21061;DHT22;10689;50.836;3.266;2022-09-12T15:51:27;30.70;99.90
21061;DHT22;10689;50.836;3.266;2022-09-12T15:53:53;30.80;99.90
21061;DHT22;10689;50.836;3.266;2022-09-12T15:56:20;30.50;99.90
21061;DHT22;10689;50.836;3.266;2022-09-12T15:58:47;30.40;99.90
21061;DHT22;10689;50.836;3.266;2022-09-12T16:01:14;30.30;99.90
21061;DHT22;10689;50.836;3.266;2022-09-12T16:03:41;30.10;99.90
21061;DHT22;10689;50.836;3.266;2022-09-12T16:06:07;29.60;99.90
21061;DHT22;10689;50.836;3.266;2022-09-12T16:08:33;29.40;99.90
21061;DHT22;10689;50.836;3.266;2022-09-12T16:11:16;29.30;99.90
21061;DHT22;10689;50.836;3.266;2022-09-12T16:13:43;29.10;99.90
21061;DHT22;10689;50.836;3.266;2022-09-12T16:16:09;28.90;99.90
21061;DHT22;10689;50.836;3.266;2022-09-12T16:18:37;28.70;99.90
21061;DHT22;10689;50.836;3.266;2022-09-12T16:21:03;28.50;99.90
21061;DHT22;10689;50.836;3.266;2022-09-12T16:23:29;28.40;99.90
21061;DHT22;10689;50.836;3.266;2022-09-12T16:26:05;28.20;99.90
21061;DHT22;10689;50.836;3.266;2022-09-12T16:28:31;28.00;99.90
21061;DHT22;10689;50.836;3.266;2022-09-12T16:31:00;27.90;99.90
21061;DHT22;10689;50.836;3.266;2022-09-12T16:33:26;27.90;99.90
21061;DHT22;10689;50.836;3.266;2022-09-12T16:35:52;27.80;99.90
21061;DHT22;10689;50.836;3.266;2022-09-12T16:38:21;27.70;99.90
21061;DHT22;10689;50.836;3.266;2022-09-12T16:40:47;27.60;99.90
21061;DHT22;10689;50.836;3.266;2022-09-12T16:43:13;27.50;99.90
21061;DHT22;10689;50.836;3.266;2022-09-12T16:45:42;27.40;99.90
21061;DHT22;10689;50.836;3.266;2022-09-12T16:48:08;27.30;99.90
21061;DHT22;10689;50.836;3.266;2022-09-12T16:50:34;27.20;99.90
21061;DHT22;10689;50.836;3.266;2022-09-12T16:52:59;27.30;99.90
21061;DHT22;10689;50.836;3.266;2022-09-12T16:55:25;27.30;99.90
21061;DHT22;10689;50.836;3.266;2022-09-12T16:57:54;27.30;99.90
21061;DHT22;10689;50.836;3.266;2022-09-12T17:00:20;27.20;99.90
21061;DHT22;10689;50.836;3.266;2022-09-12T17:02:46;27.10;99.90
21061;DHT22;10689;50.836;3.266;2022-09-12T17:05:12;27.10;99.90
21061;DHT22;10689;50.836;3.266;2022-09-12T17:07:41;27.10;99.90
21061;DHT22;10689;50.836;3.266;2022-09-12T17:10:07;26.90;99.90
21061;DHT22;10689;50.836;3.266;2022-09-12T17:12:33;26.80;99.90
21061;DHT22;10689;50.836;3.266;2022-09-12T17:14:59;26.70;99.90
21061;DHT22;10689;50.836;3.266;2022-09-12T17:17:25;26.70;99.90
21061;DHT22;10689;50.836;3.266;2022-09-12T17:19:50;26.50;99.90
21061;DHT22;10689;50.836;3.266;2022-09-12T17:22:17;26.50;99.90
21061;DHT22;10689;50.836;3.266;2022-09-12T17:24:42;26.40;99.90
21061;DHT22;10689;50.836;3.266;2022-09-12T17:27:08;26.20;99.90
21061;DHT22;10689;50.836;3.266;2022-09-12T17:29:33;26.20;99.90
21061;DHT22;10689;50.836;3.266;2022-09-12T17:32:01;26.10;99.90
21061;DHT22;10689;50.836;3.266;2022-09-12T17:34:27;26.10;99.90
21061;DHT22;10689;50.836;3.266;2022-09-12T17:36:53;26.00;99.90
21061;DHT22;10689;50.836;3.266;2022-09-12T17:39:19;25.90;99.90
21061;DHT22;10689;50.836;3.266;2022-09-12T17:41:44;25.90;99.90
21061;DHT22;10689;50.836;3.266;2022-09-12T17:44:11;25.70;99.90
21061;DHT22;10689;50.836;3.266;2022-09-12T17:46:39;25.60;99.90
21061;DHT22;10689;50.836;3.266;2022-09-12T17:49:09;25.50;99.90
21061;DHT22;10689;50.836;3.266;2022-09-12T17:51:36;25.40;99.90
21061;DHT22;10689;50.836;3.266;2022-09-12T17:54:16;25.30;99.90
21061;DHT22;10689;50.836;3.266;2022-09-12T17:56:43;25.10;99.90
21061;DHT22;10689;50.836;3.266;2022-09-12T17:59:14;25.00;99.90
21061;DHT22;10689;50.836;3.266;2022-09-12T18:01:40;24.90;99.90
21061;DHT22;10689;50.836;3.266;2022-09-12T18:04:24;24.90;99.90
21061;DHT22;10689;50.836;3.266;2022-09-12T18:06:52;24.60;99.90
21061;DHT22;10689;50.836;3.266;2022-09-12T18:09:20;24.40;99.90
21061;DHT22;10689;50.836;3.266;2022-09-12T18:11:47;24.30;99.90